Terminal Aerodrome Forecast
Issued by NWS Cleveland, OH

Home | Current Version | Previous Version | Text Only | Print | Product List | Glossary On
Versions: 1 2 3 4 5 6 7 8 9 10 11 12 13 14 15 16 17 18 19 20 21
000
FTUS41 KCLE 311700
TAFCAK
TAF
KCAK 311727Z 3118/0118 22010KT P6SM VCSH SCT007 OVC015
     FM312200 21005KT P6SM SCT012 OVC020
     FM010600 21005KT 5SM BR OVC012
     FM010800 20003KT 2SM BR BKN009 OVC012
     FM011600 20010KT 5SM BR OVC012=

USA.gov is the U.S. government's official web portal to all federal, state and local government web resources and services.